createdAt,value
2022-08-31T00:02:27.035Z,7.73
2022-08-31T00:32:30.311Z,3.30
2022-08-31T01:02:33.256Z,6.03
2022-08-31T01:32:36.462Z,7.40
2022-08-31T02:02:41.959Z,7.25
2022-08-31T02:32:46.646Z,5.33
2022-08-31T03:02:50.045Z,4.60
2022-08-31T03:32:53.302Z,5.10
2022-08-31T04:03:00.983Z,6.25
2022-08-31T04:33:04.332Z,5.90
2022-08-31T05:03:07.767Z,9.07
2022-08-31T05:33:10.478Z,7.23
2022-08-31T06:03:14.554Z,6.33
2022-08-31T06:33:17.522Z,7.33
2022-08-31T07:03:21.804Z,3.67
2022-08-31T07:33:24.574Z,4.03
2022-08-31T08:03:28.515Z,4.57
2022-08-31T08:33:31.252Z,4.30
2022-08-31T09:03:35.208Z,1.90
2022-08-31T09:33:38.136Z,2.55
2022-08-31T10:03:42.054Z,2.03
2022-08-31T10:33:45.045Z,2.30
2022-08-31T11:03:49.585Z,1.73
2022-08-31T11:34:14.533Z,2.10
2022-08-31T12:04:20.491Z,2.87
2022-08-31T12:34:27.184Z,2.35
2022-08-31T13:04:31.045Z,2.47
2022-08-31T13:34:36.490Z,3.57
2022-08-31T14:04:39.452Z,3.07
2022-08-31T14:34:42.784Z,3.80
2022-08-31T15:04:46.254Z,6.33
2022-08-31T15:34:49.499Z,2.50
2022-08-31T16:04:52.639Z,2.47
2022-08-31T16:34:56.561Z,3.63
2022-08-31T17:05:00.132Z,3.23
2022-08-31T17:35:03.389Z,5.55
2022-08-31T18:05:11.803Z,3.17
2022-08-31T18:35:15.596Z,4.83
2022-08-31T19:05:19.584Z,5.40
2022-08-31T19:35:25.825Z,5.03
2022-08-31T20:05:30.044Z,5.63
2022-08-31T20:35:33.153Z,7.23
2022-08-31T21:05:38.749Z,7.77
2022-08-31T21:35:42.643Z,6.10
2022-08-31T22:05:45.716Z,4.80
2022-08-31T22:35:49.145Z,4.87
2022-08-31T23:05:52.728Z,6.00
2022-08-31T23:35:55.998Z,4.20
